sensor_id;sensor_type;location;lat;lon;timestamp;temperature;humidity
42489;DHT22;28118;52.388;9.452;2022-11-09T00:00:40;14.10;99.90
42489;DHT22;28118;52.388;9.452;2022-11-09T00:03:07;14.10;99.90
42489;DHT22;28118;52.388;9.452;2022-11-09T00:05:37;14.00;99.90
42489;DHT22;28118;52.388;9.452;2022-11-09T00:08:05;14.00;99.90
42489;DHT22;28118;52.388;9.452;2022-11-09T00:10:32;14.00;99.90
42489;DHT22;28118;52.388;9.452;2022-11-09T00:13:24;14.00;99.90
42489;DHT22;28118;52.388;9.452;2022-11-09T00:15:50;14.00;99.90
42489;DHT22;28118;52.388;9.452;2022-11-09T00:18:17;14.00;99.90
42489;DHT22;28118;52.388;9.452;2022-11-09T00:21:10;14.00;99.90
42489;DHT22;28118;52.388;9.452;2022-11-09T00:23:37;14.00;99.90
42489;DHT22;28118;52.388;9.452;2022-11-09T00:26:07;14.00;99.90
42489;DHT22;28118;52.388;9.452;2022-11-09T00:28:35;14.00;99.90
42489;DHT22;28118;52.388;9.452;2022-11-09T00:31:04;14.00;99.90
42489;DHT22;28118;52.388;9.452;2022-11-09T00:33:31;14.00;99.90
42489;DHT22;28118;52.388;9.452;2022-11-09T00:35:59;14.00;99.90
42489;DHT22;28118;52.388;9.452;2022-11-09T00:38:28;14.00;99.90
42489;DHT22;28118;52.388;9.452;2022-11-09T00:40:59;14.00;99.90
42489;DHT22;28118;52.388;9.452;2022-11-09T00:43:50;14.00;99.90
42489;DHT22;28118;52.388;9.452;2022-11-09T00:46:17;13.90;99.90
42489;DHT22;28118;52.388;9.452;2022-11-09T00:48:45;13.90;99.90
42489;DHT22;28118;52.388;9.452;2022-11-09T00:51:12;14.00;99.90
42489;DHT22;28118;52.388;9.452;2022-11-09T00:53:39;14.00;99.90
42489;DHT22;28118;52.388;9.452;2022-11-09T00:56:09;14.00;99.90
42489;DHT22;28118;52.388;9.452;2022-11-09T00:58:37;14.00;99.90
42489;DHT22;28118;52.388;9.452;2022-11-09T01:01:07;14.00;99.90
42489;DHT22;28118;52.388;9.452;2022-11-09T01:03:34;13.90;99.90
42489;DHT22;28118;52.388;9.452;2022-11-09T01:06:00;14.00;99.90
42489;DHT22;28118;52.388;9.452;2022-11-09T01:08:27;14.00;99.90
42489;DHT22;28118;52.388;9.452;2022-11-09T01:10:53;14.00;99.90
42489;DHT22;28118;52.388;9.452;2022-11-09T01:13:20;14.00;99.90
42489;DHT22;28118;52.388;9.452;2022-11-09T01:15:50;14.10;99.90
42489;DHT22;28118;52.388;9.452;2022-11-09T01:18:18;14.10;99.90
42489;DHT22;28118;52.388;9.452;2022-11-09T01:20:47;14.20;99.90
42489;DHT22;28118;52.388;9.452;2022-11-09T01:23:16;14.10;99.90
42489;DHT22;28118;52.388;9.452;2022-11-09T01:25:44;14.20;99.90
42489;DHT22;28118;52.388;9.452;2022-11-09T01:28:11;14.20;99.90
42489;DHT22;28118;52.388;9.452;2022-11-09T01:30:40;14.30;99.90
42489;DHT22;28118;52.388;9.452;2022-11-09T01:33:10;14.30;99.90
42489;DHT22;28118;52.388;9.452;2022-11-09T01:35:38;14.30;99.90
42489;DHT22;28118;52.388;9.452;2022-11-09T01:38:06;14.30;99.90
42489;DHT22;28118;52.388;9.452;2022-11-09T01:40:35;14.20;99.90
42489;DHT22;28118;52.388;9.452;2022-11-09T01:45:33;14.20;99.90
42489;DHT22;28118;52.388;9.452;2022-11-09T01:48:12;14.20;99.90
42489;DHT22;28118;52.388;9.452;2022-11-09T01:50:44;14.30;99.90
42489;DHT22;28118;52.388;9.452;2022-11-09T01:53:25;14.30;99.90
42489;DHT22;28118;52.388;9.452;2022-11-09T01:55:55;14.20;99.90
42489;DHT22;28118;52.388;9.452;2022-11-09T01:58:28;14.30;99.90
42489;DHT22;28118;52.388;9.452;2022-11-09T02:00:57;14.30;99.90
42489;DHT22;28118;52.388;9.452;2022-11-09T02:03:37;14.30;99.90
42489;DHT22;28118;52.388;9.452;2022-11-09T02:06:07;14.30;99.90
42489;DHT22;28118;52.388;9.452;2022-11-09T02:08:35;14.30;99.90
42489;DHT22;28118;52.388;9.452;2022-11-09T02:11:15;14.30;99.90
42489;DHT22;28118;52.388;9.452;2022-11-09T02:13:51;14.20;99.90
42489;DHT22;28118;52.388;9.452;2022-11-09T02:16:18;14.30;99.90
42489;DHT22;28118;52.388;9.452;2022-11-09T02:18:53;14.30;99.90
42489;DHT22;28118;52.388;9.452;2022-11-09T02:21:22;14.20;99.90
42489;DHT22;28118;52.388;9.452;2022-11-09T02:23:50;14.30;99.90
42489;DHT22;28118;52.388;9.452;2022-11-09T02:26:30;14.30;99.90
42489;DHT22;28118;52.388;9.452;2022-11-09T02:29:00;14.30;99.90
42489;DHT22;28118;52.388;9.452;2022-11-09T02:31:32;14.30;99.90
42489;DHT22;28118;52.388;9.452;2022-11-09T02:34:04;14.30;99.90
42489;DHT22;28118;52.388;9.452;2022-11-09T02:36:31;14.30;99.90
42489;DHT22;28118;52.388;9.452;2022-11-09T02:38:58;14.30;99.90
42489;DHT22;28118;52.388;9.452;2022-11-09T02:41:25;14.30;99.90
42489;DHT22;28118;52.388;9.452;2022-11-09T02:43:53;14.40;99.90
42489;DHT22;28118;52.388;9.452;2022-11-09T02:46:30;14.30;99.90
42489;DHT22;28118;52.388;9.452;2022-11-09T02:48:57;14.30;99.90
42489;DHT22;28118;52.388;9.452;2022-11-09T02:51:24;14.40;99.90
42489;DHT22;28118;52.388;9.452;2022-11-09T02:53:50;14.40;99.90
42489;DHT22;28118;52.388;9.452;2022-11-09T02:56:17;14.40;99.90
42489;DHT22;28118;52.388;9.452;2022-11-09T02:58:44;14.40;99.90
42489;DHT22;28118;52.388;9.452;2022-11-09T03:01:10;14.40;99.90
42489;DHT22;28118;52.388;9.452;2022-11-09T03:03:37;14.30;99.90
42489;DHT22;28118;52.388;9.452;2022-11-09T03:06:04;14.30;99.90
42489;DHT22;28118;52.388;9.452;2022-11-09T03:08:31;14.40;99.90
42489;DHT22;28118;52.388;9.452;2022-11-09T03:11:00;14.30;99.90
42489;DHT22;28118;52.388;9.452;2022-11-09T03:13:27;14.30;99.90
42489;DHT22;28118;52.388;9.452;2022-11-09T03:15:53;14.30;99.90
42489;DHT22;28118;52.388;9.452;2022-11-09T03:18:20;14.30;99.90
42489;DHT22;28118;52.388;9.452;2022-11-09T03:20:46;14.30;99.90
42489;DHT22;28118;52.388;9.452;2022-11-09T03:23:13;14.30;99.90
42489;DHT22;28118;52.388;9.452;2022-11-09T03:25:40;14.30;99.90
42489;DHT22;28118;52.388;9.452;2022-11-09T03:28:07;14.20;99.90
42489;DHT22;28118;52.388;9.452;2022-11-09T03:30:33;14.20;99.90
42489;DHT22;28118;52.388;9.452;2022-11-09T03:33:05;14.20;99.90
42489;DHT22;28118;52.388;9.452;2022-11-09T03:35:36;14.20;99.90
42489;DHT22;28118;52.388;9.452;2022-11-09T03:38:03;14.20;99.90
42489;DHT22;28118;52.388;9.452;2022-11-09T03:40:30;14.20;99.90
42489;DHT22;28118;52.388;9.452;2022-11-09T03:42:57;14.20;99.90
42489;DHT22;28118;52.388;9.452;2022-11-09T03:45:24;14.20;99.90
42489;DHT22;28118;52.388;9.452;2022-11-09T03:47:53;14.10;99.90
42489;DHT22;28118;52.388;9.452;2022-11-09T03:50:26;14.20;99.90
42489;DHT22;28118;52.388;9.452;2022-11-09T03:52:53;14.10;99.90
42489;DHT22;28118;52.388;9.452;2022-11-09T03:55:20;14.10;99.90
42489;DHT22;28118;52.388;9.452;2022-11-09T03:57:47;14.10;99.90
42489;DHT22;28118;52.388;9.452;2022-11-09T04:00:16;14.10;99.90
42489;DHT22;28118;52.388;9.452;2022-11-09T04:02:43;14.10;99.90
42489;DHT22;28118;52.388;9.452;2022-11-09T04:05:10;14.10;99.90
42489;DHT22;28118;52.388;9.452;2022-11-09T04:07:37;14.00;99.90
42489;DHT22;28118;52.388;9.452;2022-11-09T04:10:05;14.00;99.90
42489;DHT22;28118;52.388;9.452;2022-11-09T04:12:32;14.00;99.90
42489;DHT22;28118;52.388;9.452;2022-11-09T04:14:58;14.00;99.90
42489;DHT22;28118;52.388;9.452;2022-11-09T04:17:25;13.90;99.90
42489;DHT22;28118;52.388;9.452;2022-11-09T04:19:52;13.90;99.90
42489;DHT22;28118;52.388;9.452;2022-11-09T04:22:18;13.90;99.90
42489;DHT22;28118;52.388;9.452;2022-11-09T04:24:45;13.90;99.90
42489;DHT22;28118;52.388;9.452;2022-11-09T04:27:11;13.80;99.90
42489;DHT22;28118;52.388;9.452;2022-11-09T04:29:38;13.80;99.90
42489;DHT22;28118;52.388;9.452;2022-11-09T04:32:04;13.80;99.90
42489;DHT22;28118;52.388;9.452;2022-11-09T04:34:31;13.80;99.90
42489;DHT22;28118;52.388;9.452;2022-11-09T04:36:58;13.80;99.90
42489;DHT22;28118;52.388;9.452;2022-11-09T04:39:24;13.70;99.90
42489;DHT22;28118;52.388;9.452;2022-11-09T04:41:51;13.70;99.90
42489;DHT22;28118;52.388;9.452;2022-11-09T04:44:18;13.70;99.90
42489;DHT22;28118;52.388;9.452;2022-11-09T04:46:44;13.70;99.90
42489;DHT22;28118;52.388;9.452;2022-11-09T04:49:11;13.70;99.90
42489;DHT22;28118;52.388;9.452;2022-11-09T04:51:38;13.70;99.90
42489;DHT22;28118;52.388;9.452;2022-11-09T04:54:04;13.70;99.90
42489;DHT22;28118;52.388;9.452;2022-11-09T04:56:31;13.60;99.90
42489;DHT22;28118;52.388;9.452;2022-11-09T04:58:57;13.60;99.90
42489;DHT22;28118;52.388;9.452;2022-11-09T05:01:24;13.60;99.90
42489;DHT22;28118;52.388;9.452;2022-11-09T05:03:51;13.60;99.90
42489;DHT22;28118;52.388;9.452;2022-11-09T05:06:17;13.60;99.90
42489;DHT22;28118;52.388;9.452;2022-11-09T05:09:05;13.60;99.90
42489;DHT22;28118;52.388;9.452;2022-11-09T05:11:33;13.60;99.90
42489;DHT22;28118;52.388;9.452;2022-11-09T05:14:00;13.50;99.90
42489;DHT22;28118;52.388;9.452;2022-11-09T05:16:27;13.50;99.90
42489;DHT22;28118;52.388;9.452;2022-11-09T05:18:54;13.50;99.90
42489;DHT22;28118;52.388;9.452;2022-11-09T05:21:21;13.50;99.90
42489;DHT22;28118;52.388;9.452;2022-11-09T05:23:48;13.50;99.90
42489;DHT22;28118;52.388;9.452;2022-11-09T05:26:36;13.50;99.90
42489;DHT22;28118;52.388;9.452;2022-11-09T05:29:08;13.50;99.90
42489;DHT22;28118;52.388;9.452;2022-11-09T05:31:36;13.50;99.90
42489;DHT22;28118;52.388;9.452;2022-11-09T05:34:04;13.50;99.90
42489;DHT22;28118;52.388;9.452;2022-11-09T05:36:31;13.50;99.90
42489;DHT22;28118;52.388;9.452;2022-11-09T05:38:59;13.40;99.90
42489;DHT22;28118;52.388;9.452;2022-11-09T05:41:26;13.50;99.90
42489;DHT22;28118;52.388;9.452;2022-11-09T05:43:53;13.50;99.90
42489;DHT22;28118;52.388;9.452;2022-11-09T05:46:20;13.50;99.90
42489;DHT22;28118;52.388;9.452;2022-11-09T05:48:47;13.50;99.90
42489;DHT22;28118;52.388;9.452;2022-11-09T05:51:14;13.50;99.90
42489;DHT22;28118;52.388;9.452;2022-11-09T05:53:41;13.50;99.90
42489;DHT22;28118;52.388;9.452;2022-11-09T05:56:13;13.50;99.90
42489;DHT22;28118;52.388;9.452;2022-11-09T05:58:40;13.50;99.90
42489;DHT22;28118;52.388;9.452;2022-11-09T06:01:13;13.50;99.90
42489;DHT22;28118;52.388;9.452;2022-11-09T06:03:40;13.50;99.90
42489;DHT22;28118;52.388;9.452;2022-11-09T06:06:11;13.50;99.90
42489;DHT22;28118;52.388;9.452;2022-11-09T06:08:38;13.50;99.90
42489;DHT22;28118;52.388;9.452;2022-11-09T06:11:07;13.50;99.90
42489;DHT22;28118;52.388;9.452;2022-11-09T06:13:34;13.50;99.90
42489;DHT22;28118;52.388;9.452;2022-11-09T06:16:02;13.50;99.90
42489;DHT22;28118;52.388;9.452;2022-11-09T06:18:30;13.50;99.90
42489;DHT22;28118;52.388;9.452;2022-11-09T06:21:00;13.60;99.90
42489;DHT22;28118;52.388;9.452;2022-11-09T06:23:27;13.50;99.90
42489;DHT22;28118;52.388;9.452;2022-11-09T06:26:03;13.50;99.90
42489;DHT22;28118;52.388;9.452;2022-11-09T06:28:32;13.50;99.90
42489;DHT22;28118;52.388;9.452;2022-11-09T06:30:59;13.50;99.90
42489;DHT22;28118;52.388;9.452;2022-11-09T06:33:28;13.50;99.90
42489;DHT22;28118;52.388;9.452;2022-11-09T06:35:55;13.50;99.90
42489;DHT22;28118;52.388;9.452;2022-11-09T06:38:23;13.50;99.90
42489;DHT22;28118;52.388;9.452;2022-11-09T06:40:52;13.50;99.90
42489;DHT22;28118;52.388;9.452;2022-11-09T06:43:19;13.50;99.90
42489;DHT22;28118;52.388;9.452;2022-11-09T06:45:47;13.50;99.90
42489;DHT22;28118;52.388;9.452;2022-11-09T06:48:14;13.50;99.90
42489;DHT22;28118;52.388;9.452;2022-11-09T06:50:41;13.60;99.90
42489;DHT22;28118;52.388;9.452;2022-11-09T06:53:10;13.60;99.90
42489;DHT22;28118;52.388;9.452;2022-11-09T06:55:37;13.60;99.90
42489;DHT22;28118;52.388;9.452;2022-11-09T06:58:13;13.60;99.90
42489;DHT22;28118;52.388;9.452;2022-11-09T07:00:42;13.60;99.90
42489;DHT22;28118;52.388;9.452;2022-11-09T07:03:15;13.70;99.90
42489;DHT22;28118;52.388;9.452;2022-11-09T07:05:43;13.70;99.90
42489;DHT22;28118;52.388;9.452;2022-11-09T07:08:10;13.70;99.90
42489;DHT22;28118;52.388;9.452;2022-11-09T07:10:40;13.70;99.90
42489;DHT22;28118;52.388;9.452;2022-11-09T07:13:07;13.70;99.90
42489;DHT22;28118;52.388;9.452;2022-11-09T07:15:35;13.70;99.90
42489;DHT22;28118;52.388;9.452;2022-11-09T07:18:03;13.70;99.90
42489;DHT22;28118;52.388;9.452;2022-11-09T07:20:31;13.70;99.90
42489;DHT22;28118;52.388;9.452;2022-11-09T07:22:57;13.70;99.90
42489;DHT22;28118;52.388;9.452;2022-11-09T07:25:24;13.70;99.90
42489;DHT22;28118;52.388;9.452;2022-11-09T07:27:52;13.70;99.90
42489;DHT22;28118;52.388;9.452;2022-11-09T07:30:19;13.80;99.90
42489;DHT22;28118;52.388;9.452;2022-11-09T07:32:46;13.80;99.90
42489;DHT22;28118;52.388;9.452;2022-11-09T07:35:32;13.80;99.90
42489;DHT22;28118;52.388;9.452;2022-11-09T07:38:00;13.80;99.90
42489;DHT22;28118;52.388;9.452;2022-11-09T07:40:28;13.80;99.90
42489;DHT22;28118;52.388;9.452;2022-11-09T07:43:03;13.90;99.90
42489;DHT22;28118;52.388;9.452;2022-11-09T07:45:31;13.90;99.90
42489;DHT22;28118;52.388;9.452;2022-11-09T07:48:00;13.90;99.90
42489;DHT22;28118;52.388;9.452;2022-11-09T07:50:28;13.90;99.90
42489;DHT22;28118;52.388;9.452;2022-11-09T07:52:57;14.00;99.90
42489;DHT22;28118;52.388;9.452;2022-11-09T07:55:25;14.00;99.90
42489;DHT22;28118;52.388;9.452;2022-11-09T07:58:00;13.90;99.90
42489;DHT22;28118;52.388;9.452;2022-11-09T08:00:29;14.00;99.90
42489;DHT22;28118;52.388;9.452;2022-11-09T08:02:56;13.90;99.90
42489;DHT22;28118;52.388;9.452;2022-11-09T08:05:23;13.90;99.90
42489;DHT22;28118;52.388;9.452;2022-11-09T08:07:57;13.90;99.90
42489;DHT22;28118;52.388;9.452;2022-11-09T08:10:26;13.90;99.90
42489;DHT22;28118;52.388;9.452;2022-11-09T08:12:55;13.90;99.90
42489;DHT22;28118;52.388;9.452;2022-11-09T08:15:22;13.90;99.90
42489;DHT22;28118;52.388;9.452;2022-11-09T08:17:49;13.90;99.90
42489;DHT22;28118;52.388;9.452;2022-11-09T08:20:16;13.90;99.90
42489;DHT22;28118;52.388;9.452;2022-11-09T08:22:44;14.00;99.90
42489;DHT22;28118;52.388;9.452;2022-11-09T08:25:12;14.10;99.90
42489;DHT22;28118;52.388;9.452;2022-11-09T08:27:39;14.10;99.90
42489;DHT22;28118;52.388;9.452;2022-11-09T08:30:11;14.10;99.90
42489;DHT22;28118;52.388;9.452;2022-11-09T08:32:39;14.10;99.90
42489;DHT22;28118;52.388;9.452;2022-11-09T08:35:06;14.20;99.90
42489;DHT22;28118;52.388;9.452;2022-11-09T08:37:36;14.30;99.90
42489;DHT22;28118;52.388;9.452;2022-11-09T08:40:04;14.30;99.90
42489;DHT22;28118;52.388;9.452;2022-11-09T08:42:32;14.30;99.90
42489;DHT22;28118;52.388;9.452;2022-11-09T08:44:58;14.40;99.90
42489;DHT22;28118;52.388;9.452;2022-11-09T08:47:25;14.40;99.90
42489;DHT22;28118;52.388;9.452;2022-11-09T08:49:52;14.50;99.90
42489;DHT22;28118;52.388;9.452;2022-11-09T08:52:18;14.50;99.90
42489;DHT22;28118;52.388;9.452;2022-11-09T08:54:45;14.60;99.90
42489;DHT22;28118;52.388;9.452;2022-11-09T08:57:21;14.70;99.90
42489;DHT22;28118;52.388;9.452;2022-11-09T08:59:48;14.70;99.90
42489;DHT22;28118;52.388;9.452;2022-11-09T09:02:14;14.80;99.90
42489;DHT22;28118;52.388;9.452;2022-11-09T09:04:41;14.90;99.90
42489;DHT22;28118;52.388;9.452;2022-11-09T09:07:08;14.90;99.90
42489;DHT22;28118;52.388;9.452;2022-11-09T09:09:35;15.00;99.90
42489;DHT22;28118;52.388;9.452;2022-11-09T09:12:06;15.00;99.90
42489;DHT22;28118;52.388;9.452;2022-11-09T09:14:34;15.00;99.90
42489;DHT22;28118;52.388;9.452;2022-11-09T09:17:01;15.00;99.90
42489;DHT22;28118;52.388;9.452;2022-11-09T09:19:28;15.00;99.90
42489;DHT22;28118;52.388;9.452;2022-11-09T09:21:55;15.00;99.90
42489;DHT22;28118;52.388;9.452;2022-11-09T09:24:22;15.10;99.90
42489;DHT22;28118;52.388;9.452;2022-11-09T09:26:49;15.10;99.90
42489;DHT22;28118;52.388;9.452;2022-11-09T09:29:15;15.10;99.90
42489;DHT22;28118;52.388;9.452;2022-11-09T09:31:42;15.10;99.90
42489;DHT22;28118;52.388;9.452;2022-11-09T09:34:09;15.10;99.90
42489;DHT22;28118;52.388;9.452;2022-11-09T09:36:37;15.10;99.90
42489;DHT22;28118;52.388;9.452;2022-11-09T09:39:10;15.10;99.90
42489;DHT22;28118;52.388;9.452;2022-11-09T09:41:59;15.00;99.90
42489;DHT22;28118;52.388;9.452;2022-11-09T09:44:42;14.90;99.90
42489;DHT22;28118;52.388;9.452;2022-11-09T09:50:22;14.80;99.90
42489;DHT22;28118;52.388;9.452;2022-11-09T09:53:09;15.00;99.90
42489;DHT22;28118;52.388;9.452;2022-11-09T09:55:55;15.00;99.90
42489;DHT22;28118;52.388;9.452;2022-11-09T09:58:33;15.00;99.90
42489;DHT22;28118;52.388;9.452;2022-11-09T10:01:17;15.00;99.90
42489;DHT22;28118;52.388;9.452;2022-11-09T10:03:48;15.00;99.90
42489;DHT22;28118;52.388;9.452;2022-11-09T10:09:15;15.20;99.90
42489;DHT22;28118;52.388;9.452;2022-11-09T10:12:02;15.20;99.90
42489;DHT22;28118;52.388;9.452;2022-11-09T10:14:39;15.20;99.90
42489;DHT22;28118;52.388;9.452;2022-11-09T10:17:22;15.10;99.90
42489;DHT22;28118;52.388;9.452;2022-11-09T10:20:08;15.00;99.90
42489;DHT22;28118;52.388;9.452;2022-11-09T10:25:28;14.90;99.90
42489;DHT22;28118;52.388;9.452;2022-11-09T10:28:16;15.00;99.90
42489;DHT22;28118;52.388;9.452;2022-11-09T10:30:43;15.10;99.90
42489;DHT22;28118;52.388;9.452;2022-11-09T10:33:17;15.30;99.90
42489;DHT22;28118;52.388;9.452;2022-11-09T10:38:24;15.60;99.90
42489;DHT22;28118;52.388;9.452;2022-11-09T10:40:57;15.80;99.90
42489;DHT22;28118;52.388;9.452;2022-11-09T10:43:25;15.90;99.90
42489;DHT22;28118;52.388;9.452;2022-11-09T10:46:01;15.90;99.90
42489;DHT22;28118;52.388;9.452;2022-11-09T10:48:36;15.90;99.90
42489;DHT22;28118;52.388;9.452;2022-11-09T10:51:03;16.10;99.90
42489;DHT22;28118;52.388;9.452;2022-11-09T10:53:31;16.30;99.90
42489;DHT22;28118;52.388;9.452;2022-11-09T10:58:50;16.30;99.90
42489;DHT22;28118;52.388;9.452;2022-11-09T11:01:25;16.20;99.90
42489;DHT22;28118;52.388;9.452;2022-11-09T11:03:54;16.30;99.90
42489;DHT22;28118;52.388;9.452;2022-11-09T11:11:24;15.80;99.90
42489;DHT22;28118;52.388;9.452;2022-11-09T11:16:34;15.70;99.90
42489;DHT22;28118;52.388;9.452;2022-11-09T11:19:03;15.80;99.90
42489;DHT22;28118;52.388;9.452;2022-11-09T11:21:30;15.70;99.90
42489;DHT22;28118;52.388;9.452;2022-11-09T11:24:13;15.70;99.90
42489;DHT22;28118;52.388;9.452;2022-11-09T11:26:54;15.70;99.90
42489;DHT22;28118;52.388;9.452;2022-11-09T11:29:31;15.60;99.90
42489;DHT22;28118;52.388;9.452;2022-11-09T11:31:58;15.80;99.90
42489;DHT22;28118;52.388;9.452;2022-11-09T11:34:24;15.60;99.90
42489;DHT22;28118;52.388;9.452;2022-11-09T11:40:06;15.60;99.90
42489;DHT22;28118;52.388;9.452;2022-11-09T11:51:06;16.00;99.90
42489;DHT22;28118;52.388;9.452;2022-11-09T11:56:30;16.20;99.90
42489;DHT22;28118;52.388;9.452;2022-11-09T12:13:58;17.00;99.90
42489;DHT22;28118;52.388;9.452;2022-11-09T12:16:45;17.00;99.90
42489;DHT22;28118;52.388;9.452;2022-11-09T12:22:14;16.40;99.90
42489;DHT22;28118;52.388;9.452;2022-11-09T12:25:01;16.70;99.90
42489;DHT22;28118;52.388;9.452;2022-11-09T12:27:59;16.60;99.90
42489;DHT22;28118;52.388;9.452;2022-11-09T12:36:19;16.90;99.90
42489;DHT22;28118;52.388;9.452;2022-11-09T12:39:02;16.80;99.90
42489;DHT22;28118;52.388;9.452;2022-11-09T12:41:34;16.80;99.90
42489;DHT22;28118;52.388;9.452;2022-11-09T12:44:12;16.90;99.90
42489;DHT22;28118;52.388;9.452;2022-11-09T12:46:47;16.80;99.90
42489;DHT22;28118;52.388;9.452;2022-11-09T12:49:36;16.90;99.90
42489;DHT22;28118;52.388;9.452;2022-11-09T12:52:05;17.40;99.90
42489;DHT22;28118;52.388;9.452;2022-11-09T12:54:34;17.50;99.90
42489;DHT22;28118;52.388;9.452;2022-11-09T12:57:05;17.60;99.90
42489;DHT22;28118;52.388;9.452;2022-11-09T12:59:56;17.40;99.90
42489;DHT22;28118;52.388;9.452;2022-11-09T13:02:31;17.10;99.90
42489;DHT22;28118;52.388;9.452;2022-11-09T13:05:04;16.80;99.90
42489;DHT22;28118;52.388;9.452;2022-11-09T13:10:28;16.50;99.90
42489;DHT22;28118;52.388;9.452;2022-11-09T13:13:22;16.40;99.90
42489;DHT22;28118;52.388;9.452;2022-11-09T13:18:48;16.40;99.90
42489;DHT22;28118;52.388;9.452;2022-11-09T13:23:49;16.20;99.90
42489;DHT22;28118;52.388;9.452;2022-11-09T13:34:43;15.90;99.90
42489;DHT22;28118;52.388;9.452;2022-11-09T13:43:12;15.70;99.90
42489;DHT22;28118;52.388;9.452;2022-11-09T13:45:43;15.70;99.90
42489;DHT22;28118;52.388;9.452;2022-11-09T13:48:35;15.80;99.90
42489;DHT22;28118;52.388;9.452;2022-11-09T13:56:26;15.70;99.90
42489;DHT22;28118;52.388;9.452;2022-11-09T13:58:57;15.70;99.90
42489;DHT22;28118;52.388;9.452;2022-11-09T14:01:32;15.60;99.90
42489;DHT22;28118;52.388;9.452;2022-11-09T14:04:04;15.60;99.90
42489;DHT22;28118;52.388;9.452;2022-11-09T14:06:31;15.60;99.90
42489;DHT22;28118;52.388;9.452;2022-11-09T14:08:59;15.60;99.90
42489;DHT22;28118;52.388;9.452;2022-11-09T14:12:15;15.60;99.90
42489;DHT22;28118;52.388;9.452;2022-11-09T14:17:41;15.60;99.90
42489;DHT22;28118;52.388;9.452;2022-11-09T14:20:33;15.50;99.90
42489;DHT22;28118;52.388;9.452;2022-11-09T14:23:13;15.50;99.90
42489;DHT22;28118;52.388;9.452;2022-11-09T14:25:41;15.40;99.90
42489;DHT22;28118;52.388;9.452;2022-11-09T14:28:23;15.40;99.90
42489;DHT22;28118;52.388;9.452;2022-11-09T14:30:51;15.30;99.90
42489;DHT22;28118;52.388;9.452;2022-11-09T14:33:27;15.30;99.90
42489;DHT22;28118;52.388;9.452;2022-11-09T14:35:56;15.30;99.90
42489;DHT22;28118;52.388;9.452;2022-11-09T14:38:35;15.20;99.90
42489;DHT22;28118;52.388;9.452;2022-11-09T14:41:02;15.10;99.90
42489;DHT22;28118;52.388;9.452;2022-11-09T14:43:39;15.10;99.90
42489;DHT22;28118;52.388;9.452;2022-11-09T14:46:15;15.10;99.90
42489;DHT22;28118;52.388;9.452;2022-11-09T14:48:59;15.00;99.90
42489;DHT22;28118;52.388;9.452;2022-11-09T14:51:33;14.90;99.90
42489;DHT22;28118;52.388;9.452;2022-11-09T14:54:01;14.90;99.90
42489;DHT22;28118;52.388;9.452;2022-11-09T14:56:31;14.80;99.90
42489;DHT22;28118;52.388;9.452;2022-11-09T14:59:00;14.80;99.90
42489;DHT22;28118;52.388;9.452;2022-11-09T15:01:29;14.80;99.90
42489;DHT22;28118;52.388;9.452;2022-11-09T15:04:17;14.80;99.90
42489;DHT22;28118;52.388;9.452;2022-11-09T15:07:16;14.80;99.90
42489;DHT22;28118;52.388;9.452;2022-11-09T15:09:45;14.80;99.90
42489;DHT22;28118;52.388;9.452;2022-11-09T15:12:15;14.70;99.90
42489;DHT22;28118;52.388;9.452;2022-11-09T15:14:47;14.70;99.90
42489;DHT22;28118;52.388;9.452;2022-11-09T15:17:15;14.50;99.90
42489;DHT22;28118;52.388;9.452;2022-11-09T15:19:58;14.40;99.90
42489;DHT22;28118;52.388;9.452;2022-11-09T15:22:40;14.30;99.90
42489;DHT22;28118;52.388;9.452;2022-11-09T15:25:20;14.30;99.90
42489;DHT22;28118;52.388;9.452;2022-11-09T15:28:42;14.30;99.90
42489;DHT22;28118;52.388;9.452;2022-11-09T15:33:20;14.20;99.90
42489;DHT22;28118;52.388;9.452;2022-11-09T15:35:59;14.10;99.90
42489;DHT22;28118;52.388;9.452;2022-11-09T15:38:28;14.00;99.90
42489;DHT22;28118;52.388;9.452;2022-11-09T15:40:55;14.00;99.90
42489;DHT22;28118;52.388;9.452;2022-11-09T15:43:22;13.90;99.90
42489;DHT22;28118;52.388;9.452;2022-11-09T15:45:49;13.90;99.90
42489;DHT22;28118;52.388;9.452;2022-11-09T15:48:15;13.90;99.90
42489;DHT22;28118;52.388;9.452;2022-11-09T15:50:42;13.80;99.90
42489;DHT22;28118;52.388;9.452;2022-11-09T15:53:11;13.70;99.90
42489;DHT22;28118;52.388;9.452;2022-11-09T15:55:37;13.60;99.90
42489;DHT22;28118;52.388;9.452;2022-11-09T15:58:04;13.60;99.90
42489;DHT22;28118;52.388;9.452;2022-11-09T16:00:31;13.60;99.90
42489;DHT22;28118;52.388;9.452;2022-11-09T16:02:57;13.50;99.90
42489;DHT22;28118;52.388;9.452;2022-11-09T16:05:24;13.50;99.90
42489;DHT22;28118;52.388;9.452;2022-11-09T16:07:53;13.50;99.90
42489;DHT22;28118;52.388;9.452;2022-11-09T16:10:21;13.40;99.90
42489;DHT22;28118;52.388;9.452;2022-11-09T16:12:53;13.40;99.90
42489;DHT22;28118;52.388;9.452;2022-11-09T16:15:23;13.40;99.90
42489;DHT22;28118;52.388;9.452;2022-11-09T16:17:49;13.50;99.90
42489;DHT22;28118;52.388;9.452;2022-11-09T16:20:17;13.50;99.90
42489;DHT22;28118;52.388;9.452;2022-11-09T16:22:45;13.50;99.90
42489;DHT22;28118;52.388;9.452;2022-11-09T16:25:13;13.60;99.90
42489;DHT22;28118;52.388;9.452;2022-11-09T16:27:40;13.70;99.90
42489;DHT22;28118;52.388;9.452;2022-11-09T16:30:17;13.70;99.90
42489;DHT22;28118;52.388;9.452;2022-11-09T16:32:44;13.70;99.90
42489;DHT22;28118;52.388;9.452;2022-11-09T16:35:12;13.80;99.90
42489;DHT22;28118;52.388;9.452;2022-11-09T16:37:55;13.80;99.90
42489;DHT22;28118;52.388;9.452;2022-11-09T16:40:23;13.80;99.90
42489;DHT22;28118;52.388;9.452;2022-11-09T16:42:51;13.80;99.90
42489;DHT22;28118;52.388;9.452;2022-11-09T16:45:18;13.80;99.90
42489;DHT22;28118;52.388;9.452;2022-11-09T16:47:50;13.80;99.90
42489;DHT22;28118;52.388;9.452;2022-11-09T16:50:17;13.80;99.90
42489;DHT22;28118;52.388;9.452;2022-11-09T16:52:44;13.80;99.90
42489;DHT22;28118;52.388;9.452;2022-11-09T16:55:11;13.80;99.90
42489;DHT22;28118;52.388;9.452;2022-11-09T16:57:38;13.80;99.90
42489;DHT22;28118;52.388;9.452;2022-11-09T17:00:05;13.70;99.90
42489;DHT22;28118;52.388;9.452;2022-11-09T17:02:32;13.70;99.90
42489;DHT22;28118;52.388;9.452;2022-11-09T17:04:59;13.70;99.90
42489;DHT22;28118;52.388;9.452;2022-11-09T17:07:26;13.70;99.90
42489;DHT22;28118;52.388;9.452;2022-11-09T17:09:53;13.60;99.90
42489;DHT22;28118;52.388;9.452;2022-11-09T17:12:19;13.60;99.90
42489;DHT22;28118;52.388;9.452;2022-11-09T17:14:46;13.70;99.90
42489;DHT22;28118;52.388;9.452;2022-11-09T17:17:13;13.60;99.90
42489;DHT22;28118;52.388;9.452;2022-11-09T17:19:47;13.60;99.90
42489;DHT22;28118;52.388;9.452;2022-11-09T17:22:14;13.60;99.90
42489;DHT22;28118;52.388;9.452;2022-11-09T17:24:41;13.60;99.90
42489;DHT22;28118;52.388;9.452;2022-11-09T17:27:08;13.60;99.90